createdAt,value
2022-10-15T14:33:37.526Z,18.10
2022-10-15T16:22:27.428Z,16.20
2022-10-15T16:25:11.849Z,16.10
2022-10-15T16:27:38.715Z,16.00
2022-10-15T16:34:35.984Z,16.00
2022-10-15T16:40:11.549Z,15.90
2022-10-15T16:46:32.251Z,16.00
2022-10-15T16:55:38.013Z,15.60
2022-10-15T16:58:12.499Z,15.30
2022-10-15T17:00:42.137Z,15.20
2022-10-15T17:03:29.466Z,15.10
2022-10-15T17:06:15.265Z,15.00
2022-10-15T17:08:48.987Z,14.90
2022-10-15T17:11:23.884Z,14.80
2022-10-15T17:14:02.335Z,14.80
2022-10-15T17:16:57.094Z,14.70
2022-10-15T17:19:56.188Z,14.70
2022-10-15T17:22:27.253Z,14.60
2022-10-15T17:28:44.682Z,14.60
2022-10-15T17:31:22.306Z,14.60
2022-10-15T17:34:32.241Z,14.60
2022-10-15T17:36:58.827Z,14.70
2022-10-15T17:45:30.618Z,14.70
2022-10-15T17:57:09.613Z,14.50
2022-10-15T18:02:42.158Z,14.30
2022-10-15T18:06:17.500Z,14.20
2022-10-15T18:09:05.458Z,14.20
2022-10-15T18:12:01.494Z,14.20
2022-10-15T18:16:16.626Z,14.10
2022-10-15T18:19:07.200Z,14.10
2022-10-15T18:22:18.388Z,14.00
2022-10-15T18:24:48.738Z,13.90
2022-10-15T18:27:16.468Z,13.90
2022-10-15T18:30:06.228Z,13.80
2022-10-15T18:33:43.069Z,13.80
2022-10-15T18:40:12.089Z,13.80
2022-10-15T18:42:38.942Z,13.80
2022-10-15T18:45:18.097Z,13.90
2022-10-15T18:48:16.340Z,13.80
2022-10-15T18:50:49.928Z,13.90
2022-10-15T18:53:20.358Z,13.90
2022-10-15T18:59:33.280Z,14.10
2022-10-15T19:02:04.203Z,14.10
2022-10-15T19:05:04.636Z,14.10
2022-10-15T19:09:00.620Z,14.20
2022-10-15T19:19:39.204Z,14.20
2022-10-15T19:30:50.308Z,14.20
2022-10-15T19:33:17.209Z,14.20
2022-10-15T19:44:16.894Z,14.30
2022-10-15T20:26:50.203Z,14.10
2022-10-15T20:31:07.706Z,14.10
2022-10-15T20:35:00.525Z,14.20
2022-10-15T20:38:31.274Z,14.10
2022-10-15T20:53:42.985Z,13.60
2022-10-15T21:17:55.611Z,13.10
2022-10-15T21:38:04.017Z,13.00
2022-10-15T21:41:53.206Z,13.00
2022-10-15T21:51:35.404Z,12.70
2022-10-15T21:57:51.277Z,12.60
2022-10-15T22:00:18.030Z,12.70
2022-10-15T22:02:49.490Z,12.70
2022-10-15T22:05:16.324Z,12.70
2022-10-15T22:07:43.032Z,12.60
2022-10-15T22:10:09.936Z,12.60
2022-10-15T22:12:37.584Z,12.50
2022-10-15T22:15:05.716Z,12.50
2022-10-15T22:17:32.466Z,12.50
2022-10-15T22:19:59.176Z,12.40
2022-10-15T22:22:26.244Z,12.40
2022-10-15T23:20:20.038Z,12.30
2022-10-15T23:22:47.699Z,12.40
2022-10-15T23:25:17.348Z,12.20
2022-10-15T23:27:46.520Z,12.20
2022-10-15T23:30:24.351Z,12.20
2022-10-15T23:32:52.311Z,12.10
2022-10-15T23:35:19.041Z,12.10
2022-10-15T23:37:48.397Z,12.20
2022-10-15T23:40:15.331Z,12.10
2022-10-15T23:42:42.216Z,12.00
2022-10-15T23:45:09.256Z,11.90
2022-10-15T23:47:36.135Z,11.90
2022-10-15T23:50:03.195Z,11.80
2022-10-15T23:52:31.839Z,11.80
2022-10-15T23:54:58.652Z,11.90
2022-10-15T23:57:25.634Z,11.70
2022-10-15T23:59:52.614Z,11.70
